createdAt,value
2022-11-21T06:32:58.261Z,-2.21
2022-11-21T06:38:19.805Z,-2.22
2022-11-21T06:43:41.491Z,-2.14
2022-11-21T06:49:02.611Z,-2.05
2022-11-21T06:54:23.456Z,-1.98
2022-11-21T06:59:44.034Z,-1.92
2022-11-21T07:05:04.965Z,-1.87
2022-11-21T07:10:26.236Z,-1.81
2022-11-21T07:15:48.234Z,-1.75
2022-11-21T07:21:10.165Z,-1.69
2022-11-21T07:26:31.279Z,-1.64
2022-11-21T07:31:52.452Z,-1.63
2022-11-21T07:37:13.112Z,-1.59
2022-11-21T07:42:33.968Z,-1.55
2022-11-21T07:48:02.684Z,-1.58
2022-11-21T07:53:24.234Z,-1.62
2022-11-21T07:58:45.073Z,-1.60
2022-11-21T08:04:05.913Z,-1.61
2022-11-21T08:09:30.041Z,-1.61
2022-11-21T08:14:51.263Z,-1.61
2022-11-21T08:20:12.343Z,-1.56
2022-11-21T17:54:34.745Z,-2.86
2022-11-21T17:59:57.376Z,-2.86
2022-11-21T18:05:18.326Z,-2.90
2022-11-21T18:10:43.682Z,-2.88
2022-11-21T18:16:11.006Z,-2.85
2022-11-21T18:21:35.492Z,-2.86
2022-11-21T18:26:56.455Z,-2.82
2022-11-21T18:32:17.238Z,-2.81
2022-11-21T18:37:38.303Z,-2.76
2022-11-21T18:42:59.384Z,-2.75
2022-11-21T18:48:20.357Z,-2.73
2022-11-21T18:53:41.986Z,-2.71
2022-11-21T18:59:05.452Z,-2.68
2022-11-21T19:04:27.126Z,-2.67
2022-11-21T19:09:48.267Z,-2.66
2022-11-21T19:15:09.521Z,-2.64
2022-11-21T19:20:30.324Z,-2.65
2022-11-21T19:25:51.218Z,-2.69
2022-11-21T19:31:17.259Z,-2.76
2022-11-21T19:36:39.389Z,-2.80
2022-11-21T19:42:00.645Z,-2.92
2022-11-21T19:47:21.444Z,-3.09
2022-11-21T19:52:42.180Z,-3.23
2022-11-21T19:58:03.020Z,-3.34
2022-11-21T20:03:23.863Z,-3.44
2022-11-21T20:08:49.183Z,-3.53
2022-11-21T20:14:11.635Z,-3.50
2022-11-21T20:19:34.631Z,-3.55
2022-11-21T20:24:55.631Z,-3.68
2022-11-21T20:30:16.651Z,-3.78
2022-11-21T20:35:39.217Z,-3.87
2022-11-21T20:40:59.722Z,-3.93
2022-11-21T20:46:21.316Z,-3.93
2022-11-21T20:57:27.570Z,-3.81
2022-11-21T21:02:48.498Z,-3.74
2022-11-21T21:08:09.429Z,-3.67
2022-11-21T21:13:30.896Z,-3.61
2022-11-21T21:18:53.605Z,-3.58
2022-11-21T21:24:15.491Z,-3.61
2022-11-21T21:29:36.437Z,-3.67
2022-11-21T21:34:57.404Z,-3.75
2022-11-21T21:40:18.082Z,-3.82
2022-11-21T21:45:38.975Z,-3.93
2022-11-21T21:51:08.050Z,-4.04
2022-11-21T21:56:29.301Z,-4.11
